Soaring Guidance
Issued by NWS Reno, NV

Home | Current Version | Previous Version | Text Only | Print | Product List | Glossary On
Versions: 1 2 3 4 5 6 7
000
UXUS97 KREV 271343
SRGREV

SOARING FORECAST
NATIONAL WEATHER SERVICE - RENO NV
700 AM PDT THU APR 27 2017

THIS SOARING FORECAST IS FOR THE EASTERN SIERRA AND WESTERN NEVADA
WITH SPECIFIC INDICES FOR THE GREATER RENO AREA.

THIS FORECAST IS PREPARED DAILY BY 700 AM AND IS NOT UPDATED.

FOR CURRENT FLIGHT CONDITIONS...FORECASTS...AND ADVISORIES...ACCESS
YOUR LOCAL BRIEFING OUTLET OR FLIGHT SERVICE STATION.

*******************************************************************
FORECASTED LOCAL INDICES FOR RENO:        TODAY     YESTERDAY
FORECASTED MAX TEMP AT RENO (DEG F).....     64          68
FORECASTED TRIGGER TEMPERATURE (DEG F)..     52          53
   EXCEEDED YESTERDAY BY 855 AM PDT
FORECASTED MAXIMUM ALTITUDE (FT MSL)....  13300       11800
FORECASTED SOARING INDEX (FPM)..........    639         444
FORECASTED K-INDEX.........VALID 18Z....     17          29
FORECASTED K-INDEX.........VALID 00Z....     27          23
FORECASTED LIFTED INDEX....VALID 18Z....     10           4
FORECASTED LIFTED INDEX....VALID 00Z....      6           7

AFTERNOON WINDS ALOFT FORECAST
MSL (FT) WIND/TEMP
9000  3119/+00
10000 3120/-03
12000 3121/-09
14000 3132/-11
16000 3145/-13
18000 3184/-16
24000 8000/-26
30000 8124/-41
34000 8119/-52
39000 8129/-60

SLIDE MOUNTAIN DATA:
     DATE       TIME     TEMP  DEWPT   RH         WIND (MPH)
                        (F)   (F)           | DIR  SPEED GUST
2017-04-27    05:20      26    26     99    | 253   26   38
2017-04-27    05:00      26    26     99    | 253   26   38
2017-04-27    04:50      27    27     99    | 253   29   41
2017-04-27    04:30      28    28    100    | 253   29   39

RENO TAF FORECAST:
KRNO 271144Z 2712/2812 VRB05KT P6SM SCT025 BKN040
     FM271400 32010KT P6SM SCT040 BKN200
     FM271800 33014G22KT P6SM SCT070 BKN220
     FM280500 02007KT P6SM SCT200

CARSON CITY TAF FORECAST:
KCXP 271144Z 2712/2812 27009KT P6SM VCSH SCT030 BKN045
     FM271400 27010KT P6SM SCT045 BKN060
     FM271800 30013G20KT P6SM SCT060 BKN220
     FM280400 VRB04KT P6SM SCT200

OUTLOOK FOR THE RENO-CARSON CITY-MINDEN AREA:
.FRIDAY...SUNNY. HIGHS 53 TO 58. NORTH WINDS 10 TO 15 MPH.

SUNRISE AND SUNSET
APRIL 27 2017.........SUNRISE   605 AM PDT   SUNSET   749 PM PDT
APRIL 28 2017.........SUNRISE   603 AM PDT   SUNSET   750 PM PDT



USA.gov is the U.S. government's official web portal to all federal, state and local government web resources and services.